Airfield :
LOGIN :

Register | Disclaimer

   EN    FR    IT 

 










Legend :    VFR   Marginal VFR   IFR   Intensive IFR   Very Intensive IFR
Visi :
Ceiling :
>= 8 km
>= 3000ft
5 to 8 km
1000 to 3000 ft
1500m to 5 km
500 to 1000 ft
800 to 1500m
200 to 500 ft
< 800m
< 200 ft
Symbols :   Thunderstorms  Fog  Heavy snow  Heavy precipitations  Wind > 20 kt
SIGMETs :     Misc.  Thunderstorms  Icing  Turbulence  Mountain Waves  Volcanic Ashes







- Airport Elevation : 1161 ft
- IATA code : RJL


LELO - Logroño-Agoncillo

CURRENT METAR :
  • 221200Z 28014G24KT 250V330 CAVOK 19/09 Q1026

EXPIRED METARs :
  • 221130Z 28012KT 230V330 CAVOK 19/09 Q1026
  • 221100Z 27015KT 230V310 9999 FEW030 19/09 Q1026
  • 221030Z 29013KT 250V330 9999 FEW030 18/09 Q1026
  • 221000Z 28014KT 240V310 9999 FEW030 18/09 Q1026
  • 220930Z 26013KT 230V300 9999 FEW030 17/10 Q1026

TAF TAF LELO
Valid from the 22 at 12:00 until the 22 at 21:00 UTC


221100Z 2212/2221 31014KT CAVOK
No reported NOTAMs for that airfield.
1 SIGMET reported for the Madrid FIR (LECM) :
 
Severe turbulence
LECM SIGMET 2 VALID 221200/221500 LEVA
LECM MADRID UIR SEV TURB FCST WI N3750 W00727 - N3743 W00139 - N3548 W00201 - N3552 W00730 - N3750 W00727 FL270/370 STNR NC=



MET'MAP, your aeronautical weather chart ! - Copyright ORBIFLY December 2007 - Disclaimer

ORBIFLY MET'MAP TEAM :

Programming & Development : Alexandra Zaïnal
Concept & Development : Baudouin d'Aumeries
Co-Development & Prog : Marc-Olivier Méhu
Technical & hardware support : Manuel Goepfert

Contact : metmap@orbifly.com




SOURCES & CREDITS :

   NOAA